createdAt,value
2023-09-15T00:00:27.359Z,19.64
2023-09-15T00:02:56.569Z,19.95
2023-09-15T00:05:29.517Z,19.88
2023-09-15T00:08:01.276Z,19.88
2023-09-15T00:10:28.116Z,19.86
2023-09-15T00:12:54.969Z,19.73
2023-09-15T00:15:21.967Z,19.89
2023-09-15T00:17:49.350Z,19.28
2023-09-15T00:20:17.824Z,19.86
2023-09-15T00:22:50.721Z,19.57
2023-09-15T00:25:27.094Z,19.70
2023-09-15T00:27:58.143Z,19.82
2023-09-15T00:30:26.553Z,19.66
2023-09-15T00:32:53.945Z,19.35
2023-09-15T00:35:25.240Z,19.72
2023-09-15T00:37:53.098Z,19.43
2023-09-15T00:40:21.665Z,19.69
2023-09-15T00:42:50.683Z,19.53
2023-09-15T00:45:20.684Z,19.45
2023-09-15T00:47:51.786Z,19.61
2023-09-15T00:50:23.008Z,19.55
2023-09-15T00:53:13.838Z,19.29
2023-09-15T00:55:42.700Z,19.27
2023-09-15T00:58:13.260Z,19.42
2023-09-15T01:00:43.579Z,19.37
2023-09-15T01:03:12.481Z,19.62
2023-09-15T01:05:41.981Z,19.55
2023-09-15T01:08:08.633Z,19.43
2023-09-15T01:10:35.575Z,19.28
2023-09-15T01:13:02.357Z,18.92
2023-09-15T01:15:55.501Z,19.38
2023-09-15T01:18:51.007Z,19.45
2023-09-15T01:21:55.981Z,19.40
2023-09-15T01:24:22.459Z,19.39
2023-09-15T01:27:04.285Z,19.43
2023-09-15T01:29:47.277Z,19.40
2023-09-15T01:32:15.770Z,19.39
2023-09-15T01:34:49.341Z,19.40
2023-09-15T01:37:16.238Z,18.92
2023-09-15T01:39:43.758Z,19.25
2023-09-15T01:42:10.746Z,19.25
2023-09-15T01:44:37.528Z,18.92
2023-09-15T01:47:07.477Z,18.69
2023-09-15T01:49:34.681Z,18.75
2023-09-15T01:52:02.550Z,19.09
2023-09-15T01:54:29.223Z,18.75
2023-09-15T01:56:55.917Z,18.58
2023-09-15T01:59:22.555Z,19.07
2023-09-15T02:01:49.215Z,18.63
2023-09-15T02:04:15.989Z,18.70
2023-09-15T02:06:42.579Z,19.10
2023-09-15T02:09:09.608Z,18.94
2023-09-15T02:11:36.204Z,18.95
2023-09-15T02:14:02.780Z,19.09
2023-09-15T02:16:29.496Z,18.84
2023-09-15T02:18:56.214Z,18.55
2023-09-15T02:21:22.848Z,18.64
2023-09-15T02:23:49.544Z,18.55
2023-09-15T02:26:16.128Z,18.96
2023-09-15T02:28:42.804Z,18.45
2023-09-15T02:31:09.648Z,18.21
2023-09-15T02:33:36.561Z,18.90
2023-09-15T02:36:05.218Z,18.32
2023-09-15T02:38:31.916Z,18.78
2023-09-15T02:40:58.452Z,18.90
2023-09-15T02:43:25.093Z,18.85
2023-09-15T02:45:51.988Z,18.79
2023-09-15T02:48:18.663Z,18.54
2023-09-15T02:50:46.561Z,18.59
2023-09-15T02:53:14.399Z,18.69
2023-09-15T02:55:40.953Z,18.72
2023-09-15T02:58:07.679Z,18.57
2023-09-15T03:00:34.531Z,18.54
2023-09-15T03:03:01.449Z,18.30
2023-09-15T03:05:28.118Z,18.52
2023-09-15T03:07:55.193Z,18.55
2023-09-15T03:10:21.786Z,18.58
2023-09-15T03:12:49.053Z,18.72
2023-09-15T03:15:17.155Z,18.69
2023-09-15T03:17:43.920Z,18.43
2023-09-15T03:20:17.338Z,18.64
2023-09-15T03:22:44.838Z,18.69
2023-09-15T03:25:12.266Z,18.33
2023-09-15T03:27:39.027Z,18.67
2023-09-15T03:30:07.615Z,18.62
2023-09-15T03:32:35.011Z,18.46
2023-09-15T03:35:01.912Z,18.37
2023-09-15T03:37:28.493Z,18.63
2023-09-15T03:39:55.307Z,18.58
2023-09-15T03:42:22.123Z,18.45
2023-09-15T03:44:48.651Z,18.34
2023-09-15T03:47:15.300Z,18.58
2023-09-15T03:49:41.904Z,18.35
2023-09-15T03:52:08.696Z,18.57
2023-09-15T03:54:35.421Z,18.36
2023-09-15T03:57:01.951Z,18.42
2023-09-15T03:59:28.597Z,18.38
2023-09-15T04:01:55.480Z,18.45
2023-09-15T04:04:22.355Z,18.46
2023-09-15T04:06:49.153Z,18.39
2023-09-15T04:09:15.785Z,18.30
2023-09-15T04:11:42.777Z,18.14
2023-09-15T04:14:09.303Z,18.33
2023-09-15T04:16:38.945Z,18.25
2023-09-15T04:19:05.799Z,18.23
2023-09-15T04:21:32.449Z,18.08
2023-09-15T04:23:59.164Z,18.25
2023-09-15T04:26:25.822Z,18.26
2023-09-15T04:28:52.393Z,18.25
2023-09-15T04:31:19.149Z,18.24
2023-09-15T04:33:46.725Z,18.06
2023-09-15T04:36:13.649Z,18.10
2023-09-15T04:38:40.401Z,17.58
2023-09-15T04:41:07.387Z,18.17
2023-09-15T04:43:33.993Z,18.09
2023-09-15T04:46:00.958Z,18.13
2023-09-15T04:48:27.661Z,17.96
2023-09-15T04:50:54.411Z,17.96
2023-09-15T04:53:21.779Z,17.82
2023-09-15T04:55:52.034Z,17.64
2023-09-15T04:58:18.754Z,17.59
2023-09-15T05:00:52.311Z,18.04
2023-09-15T05:03:19.095Z,17.94
2023-09-15T05:05:46.714Z,17.98
2023-09-15T05:08:13.534Z,17.51
2023-09-15T05:10:40.637Z,17.94
2023-09-15T05:13:07.290Z,17.60
2023-09-15T05:15:35.452Z,17.24
2023-09-15T05:18:02.300Z,17.85
2023-09-15T05:20:28.978Z,17.86
2023-09-15T05:22:55.619Z,17.87
2023-09-15T05:25:22.456Z,17.72
2023-09-15T05:27:49.140Z,17.73
2023-09-15T05:30:17.889Z,17.81
2023-09-15T05:32:44.887Z,17.60
2023-09-15T05:35:11.844Z,17.66
2023-09-15T05:37:38.817Z,17.67
2023-09-15T05:40:06.487Z,17.50
2023-09-15T05:42:33.230Z,17.12
2023-09-15T05:45:00.379Z,17.16
2023-09-15T05:47:28.332Z,17.24
2023-09-15T05:49:54.982Z,17.42
2023-09-15T05:52:21.708Z,16.60
2023-09-15T05:54:48.836Z,17.31
2023-09-15T05:57:15.493Z,17.36
2023-09-15T05:59:42.102Z,17.03
2023-09-15T06:02:08.778Z,17.46
2023-09-15T06:04:35.976Z,16.78
2023-09-15T06:07:02.862Z,17.33
2023-09-15T06:09:29.557Z,17.40
2023-09-15T06:11:56.331Z,17.49
2023-09-15T06:14:22.914Z,16.64
2023-09-15T06:16:49.753Z,17.50
2023-09-15T06:19:16.469Z,17.30
2023-09-15T06:21:43.125Z,16.90
2023-09-15T06:24:09.733Z,17.53
2023-09-15T06:26:37.892Z,17.35
2023-09-15T06:29:04.683Z,17.23
2023-09-15T06:31:31.645Z,17.24
2023-09-15T06:33:58.652Z,17.54
2023-09-15T06:36:27.678Z,17.37
2023-09-15T06:38:54.528Z,17.61
2023-09-15T06:41:21.636Z,17.29
2023-09-15T06:43:48.197Z,17.55
2023-09-15T06:46:19.989Z,17.36
2023-09-15T06:48:47.603Z,16.73
2023-09-15T06:51:14.515Z,17.33
2023-09-15T06:53:41.218Z,17.32
2023-09-15T06:56:08.222Z,17.34
2023-09-15T06:58:35.207Z,17.49
2023-09-15T07:01:05.000Z,16.78
2023-09-15T07:03:32.606Z,16.88
2023-09-15T07:05:59.802Z,17.06
2023-09-15T07:08:26.613Z,17.06
2023-09-15T07:10:53.879Z,17.59
2023-09-15T07:13:20.860Z,17.60
2023-09-15T07:15:48.866Z,17.27
2023-09-15T07:18:16.526Z,17.07
2023-09-15T07:20:43.684Z,16.96
2023-09-15T07:23:11.466Z,17.24
2023-09-15T07:25:38.621Z,17.32
2023-09-15T07:28:06.531Z,16.87
2023-09-15T07:30:33.444Z,16.73
2023-09-15T07:33:02.466Z,17.11
2023-09-15T07:35:29.591Z,17.13
2023-09-15T07:37:56.739Z,17.09
2023-09-15T07:40:25.678Z,16.93
2023-09-15T07:42:52.764Z,17.60
2023-09-15T07:45:19.685Z,17.65
2023-09-15T07:47:46.594Z,17.63
2023-09-15T07:50:14.697Z,16.75
2023-09-15T07:52:42.329Z,17.27
2023-09-15T07:55:09.165Z,17.11
2023-09-15T07:57:38.635Z,17.68
2023-09-15T08:00:08.083Z,17.68
2023-09-15T08:02:37.736Z,17.71
2023-09-15T08:05:06.373Z,17.63
2023-09-15T08:07:33.297Z,16.91
2023-09-15T08:10:02.380Z,17.69
2023-09-15T08:12:29.655Z,17.79
2023-09-15T08:14:58.770Z,17.28
2023-09-15T08:17:33.296Z,17.52
2023-09-15T08:20:02.610Z,17.51
2023-09-15T08:22:30.046Z,17.57
2023-09-15T08:24:57.315Z,16.89
2023-09-15T08:27:27.323Z,17.31
2023-09-15T08:29:54.443Z,17.48
2023-09-15T08:32:21.454Z,17.07
2023-09-15T08:34:48.460Z,17.64
2023-09-15T08:37:16.685Z,18.04
2023-09-15T08:39:46.247Z,18.05
2023-09-15T08:42:32.261Z,17.59
2023-09-15T08:45:00.898Z,17.63
2023-09-15T08:47:33.437Z,18.19
2023-09-15T08:50:07.467Z,17.46
2023-09-15T08:52:37.464Z,17.86
2023-09-15T08:55:09.245Z,17.84
2023-09-15T08:57:43.204Z,17.93
2023-09-15T09:00:14.655Z,18.07
2023-09-15T09:02:44.795Z,18.23
2023-09-15T09:05:14.840Z,18.36
2023-09-15T09:07:42.278Z,17.81
2023-09-15T09:10:09.943Z,18.79
2023-09-15T09:12:39.387Z,18.62
2023-09-15T09:15:08.673Z,18.34
2023-09-15T09:17:35.380Z,18.27
2023-09-15T09:20:02.380Z,18.66
2023-09-15T09:22:29.483Z,18.72
2023-09-15T09:24:59.541Z,19.00
2023-09-15T09:27:35.647Z,19.41
2023-09-15T09:30:03.229Z,19.26
2023-09-15T09:32:30.436Z,19.50
2023-09-15T09:34:57.405Z,19.63
2023-09-15T09:37:27.795Z,19.12
2023-09-15T09:39:55.288Z,19.80
2023-09-15T09:42:26.711Z,19.39
2023-09-15T09:44:54.478Z,19.56
2023-09-15T09:47:26.568Z,20.03
2023-09-15T09:49:56.474Z,19.35
2023-09-15T09:52:25.748Z,19.58
2023-09-15T09:54:53.410Z,19.78
2023-09-15T09:57:21.184Z,20.35
2023-09-15T09:59:48.746Z,19.99
2023-09-15T10:02:19.298Z,20.08
2023-09-15T10:04:46.937Z,19.93
2023-09-15T10:07:16.977Z,20.68
2023-09-15T10:09:50.718Z,20.46
2023-09-15T10:12:18.029Z,20.39
2023-09-15T10:14:48.692Z,20.52
2023-09-15T10:17:16.510Z,20.97
2023-09-15T10:19:44.178Z,21.08
2023-09-15T10:22:12.142Z,20.88
2023-09-15T10:24:44.625Z,20.69
2023-09-15T10:27:12.816Z,20.91
2023-09-15T10:29:43.380Z,21.41
2023-09-15T10:32:20.312Z,20.78
2023-09-15T10:34:50.584Z,21.61
2023-09-15T10:37:19.656Z,20.99
2023-09-15T10:46:46.789Z,21.67
2023-09-15T10:49:21.908Z,21.48
2023-09-15T10:52:02.858Z,21.85
2023-09-15T10:54:36.160Z,22.45
2023-09-15T10:57:06.041Z,22.11
2023-09-15T10:59:34.202Z,22.65
2023-09-15T11:02:04.140Z,22.35
2023-09-15T11:04:33.382Z,22.19
2023-09-15T11:07:14.124Z,22.19
2023-09-15T11:09:53.650Z,22.81
2023-09-15T11:12:44.348Z,23.43
2023-09-15T11:15:20.053Z,23.24
2023-09-15T11:17:53.598Z,23.29
2023-09-15T11:20:23.266Z,23.46
2023-09-15T11:22:59.279Z,24.07
2023-09-15T11:25:34.329Z,23.89
2023-09-15T11:28:10.847Z,24.00
2023-09-15T11:30:41.633Z,24.88
2023-09-15T11:33:19.724Z,25.01
2023-09-15T11:35:56.052Z,26.32
2023-09-15T11:38:28.625Z,26.63
2023-09-15T11:40:59.792Z,27.41
2023-09-15T11:43:32.734Z,27.87
2023-09-15T11:46:05.834Z,28.25
2023-09-15T11:51:50.512Z,28.83
2023-09-15T11:54:29.862Z,28.42
2023-09-15T11:57:08.731Z,29.21
2023-09-15T11:59:45.193Z,28.78
2023-09-15T12:02:25.663Z,29.34
2023-09-15T12:04:55.562Z,29.05
2023-09-15T12:07:36.603Z,29.00
2023-09-15T12:10:14.819Z,28.01
2023-09-15T12:12:51.678Z,27.77
2023-09-15T12:15:30.791Z,26.92
2023-09-15T12:18:07.183Z,26.94
2023-09-15T12:20:44.897Z,27.07
2023-09-15T12:23:17.914Z,26.55
2023-09-15T12:25:47.988Z,26.66
2023-09-15T12:28:26.051Z,25.69
2023-09-15T12:30:56.049Z,26.39
2023-09-15T12:33:28.504Z,26.05
2023-09-15T12:35:55.958Z,26.27
2023-09-15T12:38:23.156Z,26.22
2023-09-15T12:40:53.934Z,25.72
2023-09-15T12:43:30.948Z,25.88
2023-09-15T12:45:58.110Z,25.91
2023-09-15T12:48:31.382Z,25.40
2023-09-15T12:50:59.263Z,25.79
2023-09-15T12:53:31.644Z,25.74
2023-09-15T12:56:01.779Z,25.53
2023-09-15T12:58:28.991Z,25.98
2023-09-15T13:00:58.219Z,25.85
2023-09-15T13:03:29.605Z,25.48
2023-09-15T13:05:57.317Z,25.81
2023-09-15T13:08:24.506Z,26.27
2023-09-15T13:10:56.251Z,25.83
2023-09-15T13:13:25.722Z,26.31
2023-09-15T13:15:53.471Z,25.91
2023-09-15T13:18:25.016Z,26.19
2023-09-15T13:20:58.382Z,26.09
2023-09-15T13:23:30.856Z,25.64
2023-09-15T13:25:58.406Z,25.60
2023-09-15T13:28:29.416Z,26.03
2023-09-15T13:30:59.766Z,26.10
2023-09-15T13:33:36.773Z,25.81
2023-09-15T13:36:10.939Z,25.81
2023-09-15T13:38:45.162Z,25.85
2023-09-15T13:41:20.179Z,26.35
2023-09-15T13:43:47.738Z,26.04
2023-09-15T13:46:18.297Z,25.81
2023-09-15T13:48:48.178Z,26.12
2023-09-15T13:51:28.946Z,26.15
2023-09-15T13:54:00.282Z,26.25
2023-09-15T13:56:30.289Z,25.95
2023-09-15T13:59:11.293Z,26.56
2023-09-15T14:01:43.832Z,26.54
2023-09-15T14:04:24.163Z,25.79
2023-09-15T14:06:59.736Z,26.43
2023-09-15T14:09:27.345Z,26.16
2023-09-15T14:11:57.750Z,26.10
2023-09-15T14:14:34.930Z,25.53
2023-09-15T14:17:02.603Z,25.56
2023-09-15T14:19:33.230Z,25.59
2023-09-15T14:22:03.707Z,25.57
2023-09-15T14:24:39.331Z,25.77
2023-09-15T14:27:10.072Z,25.58
2023-09-15T14:29:39.991Z,25.77
2023-09-15T14:32:31.909Z,25.54
2023-09-15T14:35:06.449Z,25.15
2023-09-15T14:37:37.991Z,25.08
2023-09-15T14:40:11.283Z,25.29
2023-09-15T14:42:50.114Z,25.54
2023-09-15T14:45:20.050Z,25.11
2023-09-15T14:47:50.660Z,25.18
2023-09-15T14:50:18.232Z,25.45
2023-09-15T14:52:47.755Z,25.24
2023-09-15T14:55:19.347Z,25.64
2023-09-15T14:57:56.152Z,25.12
2023-09-15T15:00:27.203Z,24.76
2023-09-15T15:02:59.861Z,24.72
2023-09-15T15:05:30.242Z,25.32
2023-09-15T15:08:07.959Z,25.41
2023-09-15T15:10:40.658Z,24.63
2023-09-15T15:13:16.942Z,25.34
2023-09-15T15:15:45.838Z,24.64
2023-09-15T15:18:18.318Z,24.99
2023-09-15T15:20:52.634Z,24.48
2023-09-15T15:23:27.496Z,24.73
2023-09-15T15:25:55.613Z,24.44
2023-09-15T15:28:23.436Z,24.52
2023-09-15T15:30:50.800Z,24.76
2023-09-15T15:33:18.763Z,24.79
2023-09-15T15:35:46.014Z,24.81
2023-09-15T15:38:12.981Z,25.03
2023-09-15T15:40:41.717Z,24.54
2023-09-15T15:43:08.943Z,24.54
2023-09-15T15:45:38.944Z,24.94
2023-09-15T15:48:14.409Z,24.74
2023-09-15T15:50:46.323Z,24.61
2023-09-15T15:53:20.949Z,24.15
2023-09-15T15:55:54.140Z,24.42
2023-09-15T15:58:21.226Z,24.84
2023-09-15T16:00:51.352Z,24.25
2023-09-15T16:03:26.207Z,24.20
2023-09-15T16:05:59.890Z,24.48
2023-09-15T16:08:34.738Z,24.37
2023-09-15T16:11:07.447Z,24.00
2023-09-15T16:13:38.403Z,24.23
2023-09-15T16:16:10.373Z,24.38
2023-09-15T16:18:38.066Z,23.97
2023-09-15T16:21:08.813Z,24.33
2023-09-15T16:23:43.099Z,24.14
2023-09-15T16:26:10.652Z,24.24
2023-09-15T16:28:40.658Z,23.71
2023-09-15T16:31:11.086Z,23.98
2023-09-15T16:33:40.852Z,24.16
2023-09-15T16:36:22.314Z,24.45
2023-09-15T16:38:58.596Z,23.98
2023-09-15T16:41:32.463Z,24.00
2023-09-15T16:44:07.092Z,23.63
2023-09-15T16:47:23.752Z,23.68
2023-09-15T16:52:42.318Z,23.88
2023-09-15T16:55:19.104Z,23.48
2023-09-15T16:57:48.520Z,24.01
2023-09-15T17:00:31.688Z,23.04
2023-09-15T17:02:58.284Z,24.17
2023-09-15T17:05:24.872Z,24.19
2023-09-15T17:07:51.483Z,24.12
2023-09-15T17:10:18.112Z,24.40
2023-09-15T17:12:44.947Z,24.14
2023-09-15T17:15:12.571Z,24.37
2023-09-15T17:17:41.272Z,24.34
2023-09-15T17:20:11.695Z,24.17
2023-09-15T17:22:38.317Z,24.23
2023-09-15T17:25:05.203Z,24.24
2023-09-15T17:27:31.962Z,24.15
2023-09-15T17:29:58.694Z,24.11
2023-09-15T17:32:25.312Z,23.89
2023-09-15T17:34:52.606Z,23.95
2023-09-15T17:37:19.155Z,23.69
2023-09-15T17:39:50.191Z,24.02
2023-09-15T17:42:20.259Z,24.01
2023-09-15T17:44:47.016Z,23.81
2023-09-15T17:47:13.649Z,23.82
2023-09-15T17:49:42.924Z,23.80
2023-09-15T17:52:10.896Z,23.11
2023-09-15T17:54:37.717Z,23.62
2023-09-15T17:57:04.634Z,23.67
2023-09-15T17:59:31.275Z,23.65
2023-09-15T18:01:57.741Z,23.46
2023-09-15T18:04:24.351Z,23.49
2023-09-15T18:06:51.017Z,23.47
2023-09-15T18:09:17.780Z,23.21
2023-09-15T18:11:44.368Z,22.54
2023-09-15T18:14:10.932Z,23.11
2023-09-15T18:16:37.546Z,23.12
2023-09-15T18:19:07.159Z,22.83
2023-09-15T18:21:33.830Z,22.72
2023-09-15T18:24:00.418Z,23.07
2023-09-15T18:26:27.027Z,22.92
2023-09-15T18:28:53.673Z,22.94
2023-09-15T18:31:20.215Z,22.93
2023-09-15T18:33:48.385Z,22.80
2023-09-15T18:36:15.258Z,22.74
2023-09-15T18:38:41.871Z,22.73
2023-09-15T18:41:08.549Z,22.57
2023-09-15T18:43:35.130Z,22.77
2023-09-15T18:46:01.925Z,22.64
2023-09-15T18:48:28.578Z,22.43
2023-09-15T18:50:55.180Z,22.84
2023-09-15T18:53:22.119Z,22.82
2023-09-15T18:55:48.717Z,22.86
2023-09-15T18:58:15.326Z,22.38
2023-09-15T19:00:42.379Z,22.33
2023-09-15T19:03:11.178Z,22.84
2023-09-15T19:05:37.906Z,22.69
2023-09-15T19:08:04.991Z,22.73
2023-09-15T19:10:32.729Z,22.41
2023-09-15T19:12:59.827Z,22.71
2023-09-15T19:15:27.351Z,22.55
2023-09-15T19:17:55.504Z,22.67
2023-09-15T19:20:22.156Z,22.05
2023-09-15T19:22:48.644Z,22.72
2023-09-15T19:25:15.359Z,22.59
2023-09-15T19:27:41.942Z,22.48
2023-09-15T19:30:09.069Z,22.59
2023-09-15T19:32:35.922Z,22.71
2023-09-15T19:35:02.527Z,22.11
2023-09-15T19:37:29.155Z,22.55
2023-09-15T19:39:55.860Z,22.50
2023-09-15T19:42:23.430Z,22.44
2023-09-15T19:44:50.589Z,22.50
2023-09-15T19:47:17.836Z,22.41
2023-09-15T19:49:44.986Z,22.45
2023-09-15T19:52:11.646Z,22.37
2023-09-15T19:54:38.264Z,22.46
2023-09-15T19:57:05.094Z,22.19
2023-09-15T19:59:31.664Z,22.37
2023-09-15T20:01:58.457Z,22.44
2023-09-15T20:04:25.161Z,22.38
2023-09-15T20:06:51.772Z,22.01
2023-09-15T20:09:18.929Z,22.35
2023-09-15T20:11:45.573Z,22.00
2023-09-15T20:14:12.223Z,22.31
2023-09-15T20:16:38.822Z,22.23
2023-09-15T20:19:05.725Z,21.67
2023-09-15T20:21:32.495Z,22.05
2023-09-15T20:23:59.067Z,22.10
2023-09-15T20:26:25.881Z,22.14
2023-09-15T20:28:52.432Z,22.06
2023-09-15T20:31:19.078Z,21.95
2023-09-15T20:33:45.720Z,21.86
2023-09-15T20:36:12.291Z,21.98
2023-09-15T20:38:38.869Z,22.07
2023-09-15T20:41:05.705Z,22.12
2023-09-15T20:43:32.295Z,21.88
2023-09-15T20:46:00.220Z,22.13
2023-09-15T20:48:27.061Z,22.06
2023-09-15T20:50:53.667Z,22.04
2023-09-15T20:53:20.335Z,21.91
2023-09-15T20:55:48.233Z,21.83
2023-09-15T20:58:16.514Z,21.74
2023-09-15T21:00:43.454Z,21.93
2023-09-15T21:03:10.334Z,21.82
2023-09-15T21:05:36.924Z,21.90
2023-09-15T21:08:03.892Z,21.88
2023-09-15T21:10:30.684Z,21.54
2023-09-15T21:12:58.565Z,21.50
2023-09-15T21:15:25.391Z,21.73
2023-09-15T21:17:53.158Z,21.84
2023-09-15T21:20:19.994Z,21.81
2023-09-15T21:22:46.585Z,21.76
2023-09-15T21:25:13.120Z,21.78
2023-09-15T21:27:39.765Z,21.45
2023-09-15T21:30:07.041Z,21.37
2023-09-15T21:32:33.636Z,21.60
2023-09-15T21:35:00.629Z,21.70
2023-09-15T21:37:27.657Z,21.73
2023-09-15T21:39:54.286Z,21.60
2023-09-15T21:42:21.014Z,21.57
2023-09-15T21:44:47.903Z,21.68
2023-09-15T21:47:15.381Z,21.67
2023-09-15T21:49:41.911Z,21.53
2023-09-15T21:52:08.503Z,21.36
2023-09-15T21:54:35.374Z,21.43
2023-09-15T21:57:01.976Z,21.59
2023-09-15T21:59:28.564Z,21.14
2023-09-15T22:01:55.960Z,21.42
2023-09-15T22:04:22.777Z,21.21
2023-09-15T22:06:49.368Z,21.22
2023-09-15T22:09:16.064Z,21.07
2023-09-15T22:11:42.680Z,21.19
2023-09-15T22:14:09.715Z,20.86
2023-09-15T22:16:37.114Z,21.03
2023-09-15T22:19:04.030Z,21.21
2023-09-15T22:21:30.669Z,21.07
2023-09-15T22:23:58.700Z,21.11
2023-09-15T22:26:25.413Z,21.17
2023-09-15T22:28:52.064Z,21.23
2023-09-15T22:31:18.625Z,21.18
2023-09-15T22:33:45.333Z,21.09
2023-09-15T22:36:11.897Z,20.99
2023-09-15T22:38:38.455Z,20.88
2023-09-15T22:41:16.443Z,20.68
2023-09-15T22:43:44.881Z,21.03
2023-09-15T22:46:23.579Z,21.04
2023-09-15T22:48:52.169Z,21.06
2023-09-15T22:51:18.913Z,20.88
2023-09-15T22:53:45.810Z,20.57
2023-09-15T22:56:12.412Z,21.04
2023-09-15T22:58:38.945Z,20.44
2023-09-15T23:01:06.347Z,20.92
2023-09-15T23:03:34.290Z,21.00
2023-09-15T23:06:00.908Z,20.73
2023-09-15T23:08:27.515Z,20.97
2023-09-15T23:11:01.011Z,20.98
2023-09-15T23:13:27.601Z,20.90
2023-09-15T23:16:04.700Z,20.72
2023-09-15T23:18:31.412Z,20.92
2023-09-15T23:20:57.967Z,20.72
2023-09-15T23:23:25.030Z,20.90
2023-09-15T23:25:51.595Z,20.88
2023-09-15T23:28:18.262Z,20.76
2023-09-15T23:30:44.851Z,20.75
2023-09-15T23:33:11.399Z,20.84
2023-09-15T23:35:38.000Z,20.33
2023-09-15T23:38:04.648Z,20.31
2023-09-15T23:40:31.165Z,20.28
2023-09-15T23:42:57.842Z,20.54
2023-09-15T23:45:25.568Z,20.76
2023-09-15T23:47:53.053Z,20.12
2023-09-15T23:50:20.236Z,20.71
2023-09-15T23:52:46.812Z,20.68
2023-09-15T23:55:13.378Z,20.30
2023-09-15T23:57:39.890Z,20.68
